Pagrindinis puslapis
METAR-TAF:

METAR-TAF

Oro uostai :

Perry Lefors Field

Pampa, Teksasas, Jungtinės Amerikos Valstijos

platuma: 35-36-46N, ilguma: 100-59-46W, Aukštis: 989 m

Dabartinis oras

Ataskaita buvo paskelbta 21 minutes, ne 11:15 UTC
Vėjas 6 kt iš Rytų
Temperatūra 20°C
Drėgmė 83%
Slėgis 1016 hPa
Matomumas: 16.1 km
Giedras dangus

METAR: KPPA 151115Z AUTO 09006KT 10SM CLR 20/17 A2999 RMK AO2 T02030170

Laikas: 06:36 (11:36 UTC)


TAF: trūkstamas

Orai ataskaitas ir orų prognozės (METAR, TAF).

turimą stotys yra geltonos ir raudonos taškus žemėlapyje.

Perkelti pele per norėdami pamatyti stoties vardą.

Tada spustelėkite, norėdami matyti oro stebėjimo ir prognozės.

Norėdami pakeisti žemėlapį: spustelėkite ant žalios mygtukų su juodo kryžiaus žemyn,; žalią mygtuką su brūkšneliu, jei norite nutolinti; arba žalių rodyklių gretimoms žemėlapius.


METAR-TAF: